Weather History for Hammond, LA

Change the Weather History Date:

Monday, February 18, 2013

  Actual Average (KMSY) Record (KMSY)
Temperature  
Mean Temperature 50 °F -  
Max Temperature 64 °F 65 °F 81 °F (1956)
Min Temperature 37 °F 47 °F 29 °F (1958)
Degree Days  
Heating Degree Days 14    
Moisture  
Dew Point 48 °F    
Average Humidity 79    
Maximum Humidity 93    
Minimum Humidity 59    
Precipitation  
Precipitation 0.20 in - - ()
Sea Level Pressure  
Sea Level Pressure 30.13 in    
Wind  
Wind Speed 6 mph (SE)    
Max Wind Speed 22 mph    
Max Gust Speed 34 mph    
Visibility 9 miles    
Events Rain    
Averages and records for this station are not official NWS values.
T = Trace of Precipitation, MM = Missing Value Source: NWS Daily Summary

Daily Weather History Graph

Daily Weather History Graph

Search for Another Location

Airport:

Trip Planner

Search our weather history database for the weather conditions in past years. The results will help you decide how hot, cold, wet, or windy it might be!

Date:

Astronomy

Feb. 18, 2013 Rise Set
Actual Time 6:39 AM CST 5:52 PM CST
Civil Twilight 6:14 AM CST 6:16 PM CST
Nautical Twilight 5:46 AM CST 6:45 PM CST
Astronomical Twilight 5:18 AM CST 7:13 PM CST
Moon 11:50 AM CST (2/18) 1:07 AM CST (2/18)
Length of Visible Light 12h 02m
Length of Day
11h 13m
First Quarter, 58% of the Moon is Illuminated
Feb 18
First Quarter
Feb 25
Full
Mar 4
Last Quarter
Mar 11
New
Mar 19
First Quarter

Hourly Weather History & Observations

Time (CST) Temp. Windchill Dew Point Humidity Pressure Visibility Wind Dir Wind Speed Gust Speed Precip Events Conditions
12:15 AM 41.0 °F - 37.4 °F 87% 30.26 in 10.0 mi Calm Calm - N/A   Clear
12:35 AM 41.0 °F - 37.4 °F 87% 30.25 in 10.0 mi Calm Calm - N/A   Clear
12:55 AM 41.0 °F - 37.4 °F 87% 30.24 in 10.0 mi Calm Calm - N/A   Clear
1:15 AM 39.2 °F - 37.4 °F 93% 30.24 in 10.0 mi Calm Calm - N/A   Clear
1:35 AM 41.0 °F - 37.4 °F 87% 30.24 in 10.0 mi Calm Calm - N/A   Clear
1:55 AM 39.2 °F - 37.4 °F 93% 30.23 in 10.0 mi Calm Calm - N/A   Clear
2:15 AM 39.2 °F - 35.6 °F 87% 30.22 in 10.0 mi Calm Calm - N/A   Clear
2:35 AM 41.0 °F - 37.4 °F 87% 30.22 in 10.0 mi Calm Calm - N/A   Clear
2:55 AM 37.4 °F - 35.6 °F 93% 30.21 in 10.0 mi Calm Calm - N/A   Clear
3:15 AM 39.2 °F - 37.4 °F 93% 30.21 in 10.0 mi Calm Calm - N/A   Clear
3:35 AM 37.4 °F - 35.6 °F 93% 30.21 in 10.0 mi Calm Calm - N/A   Clear
3:55 AM 37.4 °F - 35.6 °F 93% 30.21 in 10.0 mi Calm Calm - N/A   Clear
4:15 AM 37.4 °F - 35.6 °F 93% 30.20 in 10.0 mi Calm Calm - N/A   Clear
4:35 AM 37.4 °F - 35.6 °F 93% 30.20 in 10.0 mi Calm Calm - N/A   Clear
4:55 AM 44.6 °F 42.2 °F 42.8 °F 93% 30.20 in 10.0 mi ESE 4.6 mph - N/A   Clear
5:15 AM 48.2 °F - 42.8 °F 82% 30.20 in 10.0 mi ESE 4.6 mph - N/A   Clear
5:35 AM 48.2 °F - 42.8 °F 82% 30.20 in 10.0 mi ESE 4.6 mph - N/A   Clear
5:55 AM 46.4 °F 44.3 °F 42.8 °F 87% 30.19 in 10.0 mi ESE 4.6 mph - N/A   Clear
6:15 AM 42.8 °F - 35.6 °F 76% 30.19 in 10.0 mi Calm Calm - N/A   Clear
6:35 AM 39.2 °F - 35.6 °F 87% 30.19 in 10.0 mi Calm Calm - N/A   Clear
6:55 AM 44.6 °F 41.4 °F 42.8 °F 93% 30.19 in 10.0 mi East 5.8 mph - N/A   Clear
7:15 AM 48.2 °F - 42.8 °F 82% 30.19 in 10.0 mi East 3.5 mph - N/A   Clear
7:35 AM 50.0 °F - 42.8 °F 76% 30.20 in 10.0 mi East 3.5 mph - N/A   Scattered Clouds
7:55 AM 53.6 °F - 44.6 °F 72% 30.20 in 10.0 mi East 6.9 mph - N/A   Mostly Cloudy
8:15 AM 57.2 °F - 48.2 °F 72% 30.20 in 10.0 mi SE 11.5 mph 18.4 mph N/A   Mostly Cloudy
8:35 AM 60.8 °F - 48.2 °F 63% 30.19 in 10.0 mi SE 15.0 mph - N/A   Mostly Cloudy
8:55 AM 60.8 °F - 48.2 °F 63% 30.20 in 10.0 mi SE 12.7 mph 21.9 mph N/A   Mostly Cloudy
9:15 AM 60.8 °F - 48.2 °F 63% 30.20 in 10.0 mi SE 13.8 mph 27.6 mph N/A   Overcast
9:35 AM 62.6 °F - 48.2 °F 59% 30.20 in 10.0 mi SE 18.4 mph 24.2 mph N/A   Overcast
9:55 AM 60.8 °F - 48.2 °F 63% 30.20 in 10.0 mi SE 15.0 mph 25.3 mph N/A   Overcast
10:15 AM 62.6 °F - 48.2 °F 59% 30.20 in 10.0 mi SE 15.0 mph 20.7 mph N/A   Overcast
10:35 AM 62.6 °F - 48.2 °F 59% 30.20 in 10.0 mi SSE 16.1 mph 20.7 mph N/A   Overcast
10:55 AM 64.4 °F - 50.0 °F 59% 30.19 in 10.0 mi SE 19.6 mph 26.5 mph N/A   Overcast
11:15 AM 64.4 °F - 50.0 °F 59% 30.19 in 10.0 mi SE 21.9 mph 34.5 mph N/A   Overcast
11:35 AM 62.6 °F - 50.0 °F 63% 30.18 in 10.0 mi SE 18.4 mph 26.5 mph N/A   Overcast
11:55 AM 62.6 °F - 50.0 °F 63% 30.16 in 10.0 mi SE 15.0 mph 25.3 mph N/A   Overcast
12:15 PM 64.4 °F - 50.0 °F 59% 30.15 in 10.0 mi SE 16.1 mph 27.6 mph N/A   Mostly Cloudy
12:35 PM 64.4 °F - 50.0 °F 59% 30.14 in 10.0 mi SE 19.6 mph 33.4 mph N/A   Mostly Cloudy
12:55 PM 64.4 °F - 50.0 °F 59% 30.13 in 10.0 mi SE 19.6 mph 26.5 mph N/A   Overcast
1:15 PM 64.4 °F - 50.0 °F 59% 30.12 in 10.0 mi SE 16.1 mph 29.9 mph N/A   Overcast
1:35 PM 62.6 °F - 50.0 °F 63% 30.12 in 10.0 mi SE 20.7 mph 27.6 mph N/A   Overcast
1:55 PM 62.6 °F - 50.0 °F 63% 30.11 in 10.0 mi SE 19.6 mph 26.5 mph N/A   Overcast
2:15 PM 62.6 °F - 50.0 °F 63% 30.11 in 10.0 mi SE 15.0 mph 24.2 mph N/A   Overcast
2:35 PM 60.8 °F - 50.0 °F 68% 30.10 in 10.0 mi ESE 18.4 mph 23.0 mph N/A   Overcast
2:55 PM 60.8 °F - 51.8 °F 72% 30.10 in 7.0 mi SE 15.0 mph 20.7 mph N/A   Drizzle
3:15 PM 59.0 °F - 53.6 °F 82% 30.10 in 3.0 mi SE 15.0 mph - 0.01 in Rain Light Rain
3:35 PM 57.2 °F - 53.6 °F 88% 30.09 in 2.5 mi SE 10.4 mph 20.7 mph 0.03 in Rain Rain
3:55 PM 57.2 °F - 53.6 °F 88% 30.08 in 5.0 mi ESE 12.7 mph - 0.05 in Rain Light Rain
4:15 PM 57.2 °F - 53.6 °F 88% 30.07 in 5.0 mi ESE 11.5 mph 17.3 mph 0.01 in Rain Heavy Rain
4:35 PM 57.2 °F - 53.6 °F 88% 30.07 in 10.0 mi ESE 10.4 mph - 0.02 in   Overcast
5:15 PM 59.0 °F - 53.6 °F 82% 30.05 in 10.0 mi ESE 15.0 mph - N/A   Overcast
5:35 PM 59.0 °F - 53.6 °F 82% 30.05 in 10.0 mi SE 19.6 mph 24.2 mph N/A   Overcast
5:55 PM 59.0 °F - 53.6 °F 82% 30.05 in 10.0 mi ESE 5.8 mph - N/A   Light Drizzle
6:15 PM 59.0 °F - 53.6 °F 82% 30.05 in 10.0 mi SE 9.2 mph - N/A Rain Light Rain
6:35 PM 59.0 °F - 53.6 °F 82% 30.04 in 10.0 mi ESE 15.0 mph 20.7 mph N/A   Light Drizzle
6:55 PM 59.0 °F - 53.6 °F 82% 30.04 in 10.0 mi ESE 11.5 mph - N/A   Overcast
7:15 PM 59.0 °F - 53.6 °F 82% 30.03 in 10.0 mi ESE 11.5 mph 17.3 mph N/A   Overcast
7:35 PM 59.0 °F - 53.6 °F 82% 30.02 in 10.0 mi SE 15.0 mph 19.6 mph N/A   Overcast
7:55 PM 59.0 °F - 53.6 °F 82% 30.02 in 10.0 mi SE 11.5 mph 17.3 mph N/A   Mostly Cloudy
8:15 PM 59.0 °F - 53.6 °F 82% 30.02 in 10.0 mi SE 9.2 mph - N/A   Overcast
8:35 PM 59.0 °F - 55.4 °F 88% 30.02 in 10.0 mi SE 6.9 mph - N/A   Overcast
8:55 PM 59.0 °F - 55.4 °F 88% 30.01 in 10.0 mi SE 10.4 mph - N/A   Overcast
9:15 PM 59.0 °F - 55.4 °F 88% 30.02 in 10.0 mi SE 9.2 mph - N/A   Overcast
9:35 PM 60.8 °F - 55.4 °F 82% 30.02 in 10.0 mi SE 11.5 mph - N/A   Overcast
9:55 PM 60.8 °F - 55.4 °F 82% 30.02 in 10.0 mi SSE 10.4 mph - N/A   Overcast
10:15 PM 60.8 °F - 57.2 °F 88% 30.00 in 5.0 mi SSE 13.8 mph - 0.01 in Rain Rain
10:35 PM 60.8 °F - 57.2 °F 88% 30.00 in 5.0 mi SSE 6.9 mph - 0.04 in Rain Heavy Rain
10:55 PM 60.8 °F - 57.2 °F 88% 29.99 in 7.0 mi SSE 10.4 mph - 0.07 in Rain Light Rain
11:15 PM 60.8 °F - 57.2 °F 88% 29.99 in 10.0 mi SSE 9.2 mph - 0.02 in   Light Drizzle
11:35 PM 62.6 °F - 57.2 °F 82% 29.99 in 10.0 mi South 15.0 mph - 0.04 in   Overcast
11:55 PM 62.6 °F - 59.0 °F 88% 29.99 in 10.0 mi South 12.7 mph 19.6 mph 0.06 in Rain Light Rain